sensor_id;sensor_type;location;lat;lon;timestamp;P1;durP1;ratioP1;P2;durP2;ratioP2
74383;SDS011;62824;52.994;-3.936;2022-12-18T00:01:32;8.60;;;3.88;;
74383;SDS011;62824;52.994;-3.936;2022-12-18T00:04:00;11.05;;;4.68;;
74383;SDS011;62824;52.994;-3.936;2022-12-18T00:06:28;6.75;;;3.38;;
74383;SDS011;62824;52.994;-3.936;2022-12-18T00:08:55;6.75;;;2.80;;
74383;SDS011;62824;52.994;-3.936;2022-12-18T00:11:23;4.05;;;2.60;;
74383;SDS011;62824;52.994;-3.936;2022-12-18T00:13:52;4.20;;;2.10;;
74383;SDS011;62824;52.994;-3.936;2022-12-18T00:16:20;7.75;;;4.55;;
74383;SDS011;62824;52.994;-3.936;2022-12-18T00:18:50;5.15;;;2.00;;
74383;SDS011;62824;52.994;-3.936;2022-12-18T00:21:18;4.25;;;1.75;;
74383;SDS011;62824;52.994;-3.936;2022-12-18T00:23:45;5.30;;;1.40;;
74383;SDS011;62824;52.994;-3.936;2022-12-18T00:26:16;2.40;;;1.80;;
74383;SDS011;62824;52.994;-3.936;2022-12-18T00:28:44;5.50;;;2.55;;
74383;SDS011;62824;52.994;-3.936;2022-12-18T00:31:14;5.00;;;2.20;;
74383;SDS011;62824;52.994;-3.936;2022-12-18T00:33:41;5.72;;;2.15;;
74383;SDS011;62824;52.994;-3.936;2022-12-18T00:36:09;2.95;;;1.73;;
74383;SDS011;62824;52.994;-3.936;2022-12-18T00:38:38;3.70;;;2.08;;
74383;SDS011;62824;52.994;-3.936;2022-12-18T00:41:04;7.07;;;2.92;;
74383;SDS011;62824;52.994;-3.936;2022-12-18T00:43:33;4.65;;;1.73;;
74383;SDS011;62824;52.994;-3.936;2022-12-18T00:45:59;3.63;;;1.80;;
74383;SDS011;62824;52.994;-3.936;2022-12-18T00:48:25;2.63;;;1.70;;
74383;SDS011;62824;52.994;-3.936;2022-12-18T00:50:51;3.70;;;2.00;;
74383;SDS011;62824;52.994;-3.936;2022-12-18T00:53:17;3.65;;;2.08;;
74383;SDS011;62824;52.994;-3.936;2022-12-18T00:55:43;10.23;;;3.78;;
74383;SDS011;62824;52.994;-3.936;2022-12-18T00:58:11;7.95;;;3.40;;
74383;SDS011;62824;52.994;-3.936;2022-12-18T01:00:37;4.18;;;2.88;;
74383;SDS011;62824;52.994;-3.936;2022-12-18T01:03:03;5.55;;;3.40;;
74383;SDS011;62824;52.994;-3.936;2022-12-18T01:05:30;3.85;;;2.83;;
74383;SDS011;62824;52.994;-3.936;2022-12-18T01:07:56;4.60;;;2.58;;
74383;SDS011;62824;52.994;-3.936;2022-12-18T01:10:23;3.17;;;1.75;;
74383;SDS011;62824;52.994;-3.936;2022-12-18T01:12:49;6.95;;;2.70;;
74383;SDS011;62824;52.994;-3.936;2022-12-18T01:15:15;1.77;;;1.50;;
74383;SDS011;62824;52.994;-3.936;2022-12-18T01:17:43;4.65;;;2.25;;
74383;SDS011;62824;52.994;-3.936;2022-12-18T01:20:09;2.97;;;2.22;;
74383;SDS011;62824;52.994;-3.936;2022-12-18T01:22:37;2.67;;;1.75;;
74383;SDS011;62824;52.994;-3.936;2022-12-18T01:25:21;3.58;;;2.13;;
74383;SDS011;62824;52.994;-3.936;2022-12-18T01:27:47;3.85;;;2.95;;
74383;SDS011;62824;52.994;-3.936;2022-12-18T01:30:13;4.50;;;2.80;;
74383;SDS011;62824;52.994;-3.936;2022-12-18T01:32:39;22.52;;;9.43;;
74383;SDS011;62824;52.994;-3.936;2022-12-18T01:35:05;5.68;;;3.58;;
74383;SDS011;62824;52.994;-3.936;2022-12-18T01:37:31;2.35;;;1.92;;
74383;SDS011;62824;52.994;-3.936;2022-12-18T01:39:57;2.10;;;1.35;;
74383;SDS011;62824;52.994;-3.936;2022-12-18T01:42:23;4.47;;;1.98;;
74383;SDS011;62824;52.994;-3.936;2022-12-18T01:47:56;3.80;;;1.48;;
74383;SDS011;62824;52.994;-3.936;2022-12-18T01:50:41;2.80;;;1.52;;
74383;SDS011;62824;52.994;-3.936;2022-12-18T01:55:43;3.28;;;1.60;;
74383;SDS011;62824;52.994;-3.936;2022-12-18T01:58:15;3.17;;;1.70;;
74383;SDS011;62824;52.994;-3.936;2022-12-18T02:00:41;2.72;;;1.50;;
74383;SDS011;62824;52.994;-3.936;2022-12-18T02:03:07;2.53;;;1.70;;
74383;SDS011;62824;52.994;-3.936;2022-12-18T02:08:20;4.03;;;1.90;;
74383;SDS011;62824;52.994;-3.936;2022-12-18T02:19:34;2.70;;;1.35;;
74383;SDS011;62824;52.994;-3.936;2022-12-18T02:22:07;2.67;;;1.40;;
74383;SDS011;62824;52.994;-3.936;2022-12-18T02:27:33;2.53;;;1.77;;
74383;SDS011;62824;52.994;-3.936;2022-12-18T02:30:02;3.38;;;1.38;;
74383;SDS011;62824;52.994;-3.936;2022-12-18T02:32:31;4.15;;;1.60;;
74383;SDS011;62824;52.994;-3.936;2022-12-18T02:35:04;2.63;;;1.65;;
74383;SDS011;62824;52.994;-3.936;2022-12-18T02:37:32;4.95;;;1.52;;
74383;SDS011;62824;52.994;-3.936;2022-12-18T02:40:00;3.03;;;1.20;;
74383;SDS011;62824;52.994;-3.936;2022-12-18T02:42:28;2.13;;;1.30;;
74383;SDS011;62824;52.994;-3.936;2022-12-18T02:44:54;1.67;;;1.50;;
74383;SDS011;62824;52.994;-3.936;2022-12-18T02:47:21;2.00;;;1.25;;
74383;SDS011;62824;52.994;-3.936;2022-12-18T03:05:28;3.33;;;1.10;;
74383;SDS011;62824;52.994;-3.936;2022-12-18T03:08:38;1.30;;;0.98;;
74383;SDS011;62824;52.994;-3.936;2022-12-18T03:10:50;2.15;;;1.02;;
74383;SDS011;62824;52.994;-3.936;2022-12-18T03:13:39;2.03;;;1.20;;
74383;SDS011;62824;52.994;-3.936;2022-12-18T03:19:07;3.53;;;1.13;;
74383;SDS011;62824;52.994;-3.936;2022-12-18T03:21:43;2.80;;;1.50;;
74383;SDS011;62824;52.994;-3.936;2022-12-18T03:24:18;1.20;;;1.08;;
74383;SDS011;62824;52.994;-3.936;2022-12-18T03:26:47;2.00;;;1.17;;
74383;SDS011;62824;52.994;-3.936;2022-12-18T03:29:28;1.63;;;1.25;;
74383;SDS011;62824;52.994;-3.936;2022-12-18T03:34:55;1.88;;;1.45;;
74383;SDS011;62824;52.994;-3.936;2022-12-18T03:37:24;2.03;;;1.27;;
74383;SDS011;62824;52.994;-3.936;2022-12-18T03:39:50;2.28;;;1.27;;
74383;SDS011;62824;52.994;-3.936;2022-12-18T03:42:29;3.20;;;1.10;;
74383;SDS011;62824;52.994;-3.936;2022-12-18T03:45:07;1.58;;;0.98;;
74383;SDS011;62824;52.994;-3.936;2022-12-18T03:47:37;2.72;;;1.20;;
74383;SDS011;62824;52.994;-3.936;2022-12-18T03:50:27;2.72;;;1.25;;
74383;SDS011;62824;52.994;-3.936;2022-12-18T03:53:22;2.13;;;1.00;;
74383;SDS011;62824;52.994;-3.936;2022-12-18T03:55:59;3.92;;;1.60;;
74383;SDS011;62824;52.994;-3.936;2022-12-18T03:58:27;3.50;;;1.60;;
74383;SDS011;62824;52.994;-3.936;2022-12-18T04:00:55;2.20;;;1.40;;
74383;SDS011;62824;52.994;-3.936;2022-12-18T04:03:24;2.70;;;1.42;;
74383;SDS011;62824;52.994;-3.936;2022-12-18T04:05:51;2.78;;;1.40;;
74383;SDS011;62824;52.994;-3.936;2022-12-18T04:08:19;3.17;;;1.48;;
74383;SDS011;62824;52.994;-3.936;2022-12-18T04:10:46;2.53;;;1.38;;
74383;SDS011;62824;52.994;-3.936;2022-12-18T04:13:13;3.35;;;1.35;;
74383;SDS011;62824;52.994;-3.936;2022-12-18T04:15:52;3.50;;;1.58;;
74383;SDS011;62824;52.994;-3.936;2022-12-18T04:18:18;3.10;;;1.27;;
74383;SDS011;62824;52.994;-3.936;2022-12-18T04:20:44;2.47;;;1.27;;
74383;SDS011;62824;52.994;-3.936;2022-12-18T04:23:10;2.53;;;1.27;;
74383;SDS011;62824;52.994;-3.936;2022-12-18T04:25:36;4.00;;;1.85;;
74383;SDS011;62824;52.994;-3.936;2022-12-18T04:28:02;2.47;;;1.20;;
74383;SDS011;62824;52.994;-3.936;2022-12-18T04:30:28;4.32;;;1.73;;
74383;SDS011;62824;52.994;-3.936;2022-12-18T04:32:54;2.45;;;1.25;;
74383;SDS011;62824;52.994;-3.936;2022-12-18T04:35:19;3.05;;;1.55;;
74383;SDS011;62824;52.994;-3.936;2022-12-18T04:37:45;2.78;;;1.40;;
74383;SDS011;62824;52.994;-3.936;2022-12-18T04:40:11;2.85;;;1.52;;
74383;SDS011;62824;52.994;-3.936;2022-12-18T04:42:38;2.33;;;1.40;;
74383;SDS011;62824;52.994;-3.936;2022-12-18T04:45:05;2.80;;;1.30;;
74383;SDS011;62824;52.994;-3.936;2022-12-18T04:47:32;3.22;;;1.50;;
74383;SDS011;62824;52.994;-3.936;2022-12-18T04:49:57;3.50;;;1.55;;
74383;SDS011;62824;52.994;-3.936;2022-12-18T04:52:23;2.67;;;1.35;;
74383;SDS011;62824;52.994;-3.936;2022-12-18T04:54:49;3.95;;;1.60;;
74383;SDS011;62824;52.994;-3.936;2022-12-18T04:57:15;1.48;;;1.10;;
74383;SDS011;62824;52.994;-3.936;2022-12-18T04:59:43;2.80;;;1.38;;
74383;SDS011;62824;52.994;-3.936;2022-12-18T05:02:09;2.70;;;1.73;;
74383;SDS011;62824;52.994;-3.936;2022-12-18T05:04:35;17.95;;;3.45;;
74383;SDS011;62824;52.994;-3.936;2022-12-18T05:07:01;8.65;;;2.97;;
74383;SDS011;62824;52.994;-3.936;2022-12-18T05:09:27;7.20;;;3.42;;
74383;SDS011;62824;52.994;-3.936;2022-12-18T05:11:53;7.53;;;3.38;;
74383;SDS011;62824;52.994;-3.936;2022-12-18T05:14:18;4.43;;;1.85;;
74383;SDS011;62824;52.994;-3.936;2022-12-18T05:16:44;6.43;;;2.60;;
74383;SDS011;62824;52.994;-3.936;2022-12-18T05:19:10;3.38;;;2.00;;
74383;SDS011;62824;52.994;-3.936;2022-12-18T05:21:36;3.00;;;1.80;;
74383;SDS011;62824;52.994;-3.936;2022-12-18T05:24:01;3.78;;;1.60;;
74383;SDS011;62824;52.994;-3.936;2022-12-18T05:26:27;4.07;;;2.00;;
74383;SDS011;62824;52.994;-3.936;2022-12-18T05:28:56;2.78;;;1.48;;
74383;SDS011;62824;52.994;-3.936;2022-12-18T05:31:22;2.45;;;1.80;;
74383;SDS011;62824;52.994;-3.936;2022-12-18T05:33:50;3.30;;;2.05;;
74383;SDS011;62824;52.994;-3.936;2022-12-18T05:36:16;4.10;;;1.95;;
74383;SDS011;62824;52.994;-3.936;2022-12-18T05:38:42;3.35;;;1.70;;
74383;SDS011;62824;52.994;-3.936;2022-12-18T05:41:08;5.60;;;2.30;;
74383;SDS011;62824;52.994;-3.936;2022-12-18T05:43:35;3.92;;;2.15;;
74383;SDS011;62824;52.994;-3.936;2022-12-18T05:46:09;5.18;;;2.30;;
74383;SDS011;62824;52.994;-3.936;2022-12-18T05:48:38;2.20;;;1.48;;
74383;SDS011;62824;52.994;-3.936;2022-12-18T05:51:08;3.65;;;2.05;;
74383;SDS011;62824;52.994;-3.936;2022-12-18T05:53:36;2.30;;;1.77;;
74383;SDS011;62824;52.994;-3.936;2022-12-18T05:56:03;4.57;;;2.30;;
74383;SDS011;62824;52.994;-3.936;2022-12-18T05:58:30;3.30;;;2.05;;
74383;SDS011;62824;52.994;-3.936;2022-12-18T06:00:57;3.53;;;2.22;;
74383;SDS011;62824;52.994;-3.936;2022-12-18T06:03:23;3.63;;;1.92;;
74383;SDS011;62824;52.994;-3.936;2022-12-18T06:05:49;3.72;;;1.83;;
74383;SDS011;62824;52.994;-3.936;2022-12-18T06:08:15;4.97;;;2.00;;
74383;SDS011;62824;52.994;-3.936;2022-12-18T06:10:41;3.20;;;1.70;;
74383;SDS011;62824;52.994;-3.936;2022-12-18T06:13:07;2.67;;;1.52;;
74383;SDS011;62824;52.994;-3.936;2022-12-18T06:15:33;2.72;;;1.42;;
74383;SDS011;62824;52.994;-3.936;2022-12-18T06:18:02;2.95;;;1.77;;
74383;SDS011;62824;52.994;-3.936;2022-12-18T06:20:31;4.00;;;1.90;;
74383;SDS011;62824;52.994;-3.936;2022-12-18T06:22:57;4.25;;;1.80;;
74383;SDS011;62824;52.994;-3.936;2022-12-18T06:25:22;2.72;;;1.73;;
74383;SDS011;62824;52.994;-3.936;2022-12-18T06:27:48;3.40;;;2.42;;
74383;SDS011;62824;52.994;-3.936;2022-12-18T06:30:14;5.38;;;2.60;;
74383;SDS011;62824;52.994;-3.936;2022-12-18T06:32:40;6.40;;;2.88;;
74383;SDS011;62824;52.994;-3.936;2022-12-18T06:35:21;5.45;;;2.90;;
74383;SDS011;62824;52.994;-3.936;2022-12-18T06:37:47;6.05;;;3.05;;
74383;SDS011;62824;52.994;-3.936;2022-12-18T06:40:22;6.38;;;3.40;;
74383;SDS011;62824;52.994;-3.936;2022-12-18T06:42:47;5.60;;;1.95;;
74383;SDS011;62824;52.994;-3.936;2022-12-18T06:45:16;3.08;;;1.83;;
74383;SDS011;62824;52.994;-3.936;2022-12-18T06:47:42;2.00;;;1.58;;
74383;SDS011;62824;52.994;-3.936;2022-12-18T06:50:08;4.00;;;2.30;;
74383;SDS011;62824;52.994;-3.936;2022-12-18T06:52:34;5.47;;;2.05;;
74383;SDS011;62824;52.994;-3.936;2022-12-18T06:55:00;5.00;;;2.20;;
74383;SDS011;62824;52.994;-3.936;2022-12-18T06:57:25;5.50;;;2.30;;
74383;SDS011;62824;52.994;-3.936;2022-12-18T06:59:51;4.18;;;2.72;;
74383;SDS011;62824;52.994;-3.936;2022-12-18T07:02:17;4.82;;;2.50;;
74383;SDS011;62824;52.994;-3.936;2022-12-18T07:04:43;4.45;;;2.60;;
74383;SDS011;62824;52.994;-3.936;2022-12-18T07:07:08;3.55;;;2.00;;
74383;SDS011;62824;52.994;-3.936;2022-12-18T07:09:34;2.95;;;2.10;;
74383;SDS011;62824;52.994;-3.936;2022-12-18T07:12:00;3.22;;;1.98;;
74383;SDS011;62824;52.994;-3.936;2022-12-18T07:14:26;3.92;;;1.63;;
74383;SDS011;62824;52.994;-3.936;2022-12-18T07:16:51;4.75;;;1.75;;
74383;SDS011;62824;52.994;-3.936;2022-12-18T07:19:17;2.97;;;1.77;;
74383;SDS011;62824;52.994;-3.936;2022-12-18T07:21:43;3.03;;;1.90;;
74383;SDS011;62824;52.994;-3.936;2022-12-18T07:24:08;5.75;;;2.15;;
74383;SDS011;62824;52.994;-3.936;2022-12-18T07:26:34;4.60;;;1.95;;
74383;SDS011;62824;52.994;-3.936;2022-12-18T07:29:00;4.28;;;2.17;;
74383;SDS011;62824;52.994;-3.936;2022-12-18T07:31:26;5.03;;;2.28;;
74383;SDS011;62824;52.994;-3.936;2022-12-18T07:33:52;4.18;;;2.85;;
74383;SDS011;62824;52.994;-3.936;2022-12-18T07:36:18;6.13;;;2.50;;
74383;SDS011;62824;52.994;-3.936;2022-12-18T07:38:46;4.45;;;2.53;;
74383;SDS011;62824;52.994;-3.936;2022-12-18T07:41:13;3.85;;;2.40;;
74383;SDS011;62824;52.994;-3.936;2022-12-18T07:43:40;5.50;;;2.85;;
74383;SDS011;62824;52.994;-3.936;2022-12-18T07:46:07;4.43;;;2.05;;
74383;SDS011;62824;52.994;-3.936;2022-12-18T07:48:34;5.72;;;3.03;;
74383;SDS011;62824;52.994;-3.936;2022-12-18T07:51:00;5.88;;;2.95;;
74383;SDS011;62824;52.994;-3.936;2022-12-18T07:53:46;6.25;;;3.17;;
74383;SDS011;62824;52.994;-3.936;2022-12-18T07:56:12;6.82;;;3.28;;
74383;SDS011;62824;52.994;-3.936;2022-12-18T07:58:38;7.80;;;3.17;;
74383;SDS011;62824;52.994;-3.936;2022-12-18T08:01:05;5.18;;;2.80;;
74383;SDS011;62824;52.994;-3.936;2022-12-18T08:03:34;6.85;;;3.15;;
74383;SDS011;62824;52.994;-3.936;2022-12-18T08:06:01;7.80;;;3.13;;
74383;SDS011;62824;52.994;-3.936;2022-12-18T08:08:29;7.88;;;3.58;;
74383;SDS011;62824;52.994;-3.936;2022-12-18T08:10:55;4.28;;;2.78;;
74383;SDS011;62824;52.994;-3.936;2022-12-18T08:13:23;5.38;;;3.25;;
74383;SDS011;62824;52.994;-3.936;2022-12-18T08:15:56;5.25;;;2.95;;
74383;SDS011;62824;52.994;-3.936;2022-12-18T08:18:33;6.15;;;3.55;;
74383;SDS011;62824;52.994;-3.936;2022-12-18T08:21:11;6.70;;;2.70;;
74383;SDS011;62824;52.994;-3.936;2022-12-18T08:23:40;5.65;;;3.28;;
74383;SDS011;62824;52.994;-3.936;2022-12-18T08:26:06;6.25;;;3.30;;
74383;SDS011;62824;52.994;-3.936;2022-12-18T08:28:32;8.00;;;3.33;;
74383;SDS011;62824;52.994;-3.936;2022-12-18T08:30:58;5.22;;;3.00;;
74383;SDS011;62824;52.994;-3.936;2022-12-18T08:33:24;8.63;;;3.75;;
74383;SDS011;62824;52.994;-3.936;2022-12-18T08:35:50;6.15;;;3.22;;
74383;SDS011;62824;52.994;-3.936;2022-12-18T08:38:15;8.10;;;3.80;;
74383;SDS011;62824;52.994;-3.936;2022-12-18T08:40:41;7.40;;;4.47;;
74383;SDS011;62824;52.994;-3.936;2022-12-18T08:43:07;7.72;;;3.80;;
74383;SDS011;62824;52.994;-3.936;2022-12-18T08:45:53;6.22;;;3.42;;
74383;SDS011;62824;52.994;-3.936;2022-12-18T08:48:19;8.80;;;3.60;;
74383;SDS011;62824;52.994;-3.936;2022-12-18T08:50:55;9.45;;;4.13;;
74383;SDS011;62824;52.994;-3.936;2022-12-18T08:53:24;6.47;;;3.75;;
74383;SDS011;62824;52.994;-3.936;2022-12-18T08:55:50;5.78;;;3.20;;
74383;SDS011;62824;52.994;-3.936;2022-12-18T08:58:16;7.40;;;3.92;;
74383;SDS011;62824;52.994;-3.936;2022-12-18T09:00:42;6.32;;;3.95;;
74383;SDS011;62824;52.994;-3.936;2022-12-18T09:03:15;6.50;;;3.80;;
74383;SDS011;62824;52.994;-3.936;2022-12-18T09:05:43;7.25;;;4.10;;
74383;SDS011;62824;52.994;-3.936;2022-12-18T09:08:11;7.20;;;4.18;;
74383;SDS011;62824;52.994;-3.936;2022-12-18T09:10:46;8.07;;;4.07;;
74383;SDS011;62824;52.994;-3.936;2022-12-18T09:13:14;8.10;;;4.00;;
74383;SDS011;62824;52.994;-3.936;2022-12-18T09:15:50;7.43;;;4.13;;
74383;SDS011;62824;52.994;-3.936;2022-12-18T09:18:19;7.63;;;4.32;;
74383;SDS011;62824;52.994;-3.936;2022-12-18T09:20:46;7.13;;;4.00;;
74383;SDS011;62824;52.994;-3.936;2022-12-18T09:23:12;7.93;;;4.00;;
74383;SDS011;62824;52.994;-3.936;2022-12-18T09:25:38;8.82;;;4.68;;
74383;SDS011;62824;52.994;-3.936;2022-12-18T09:28:11;6.25;;;4.07;;
74383;SDS011;62824;52.994;-3.936;2022-12-18T09:30:43;7.10;;;3.67;;
74383;SDS011;62824;52.994;-3.936;2022-12-18T09:33:10;7.13;;;3.45;;
74383;SDS011;62824;52.994;-3.936;2022-12-18T09:35:40;8.77;;;4.45;;
74383;SDS011;62824;52.994;-3.936;2022-12-18T09:38:08;8.32;;;4.85;;
74383;SDS011;62824;52.994;-3.936;2022-12-18T09:40:57;7.18;;;4.60;;
74383;SDS011;62824;52.994;-3.936;2022-12-18T09:43:47;9.70;;;4.72;;
74383;SDS011;62824;52.994;-3.936;2022-12-18T09:46:23;11.43;;;6.15;;
74383;SDS011;62824;52.994;-3.936;2022-12-18T09:48:54;8.90;;;4.43;;
74383;SDS011;62824;52.994;-3.936;2022-12-18T09:51:42;8.10;;;4.35;;
74383;SDS011;62824;52.994;-3.936;2022-12-18T09:54:20;8.90;;;4.38;;
74383;SDS011;62824;52.994;-3.936;2022-12-18T09:56:53;8.27;;;4.20;;
74383;SDS011;62824;52.994;-3.936;2022-12-18T09:59:23;9.18;;;4.35;;
74383;SDS011;62824;52.994;-3.936;2022-12-18T10:01:58;9.82;;;4.80;;
74383;SDS011;62824;52.994;-3.936;2022-12-18T10:04:24;11.95;;;5.50;;
74383;SDS011;62824;52.994;-3.936;2022-12-18T10:09:45;10.50;;;5.18;;
74383;SDS011;62824;52.994;-3.936;2022-12-18T10:20:24;10.75;;;5.75;;
74383;SDS011;62824;52.994;-3.936;2022-12-18T10:23:31;46.05;;;19.00;;
74383;SDS011;62824;52.994;-3.936;2022-12-18T10:26:04;10.27;;;5.70;;
74383;SDS011;62824;52.994;-3.936;2022-12-18T10:28:32;11.68;;;5.03;;
74383;SDS011;62824;52.994;-3.936;2022-12-18T10:31:00;12.45;;;5.45;;
74383;SDS011;62824;52.994;-3.936;2022-12-18T10:33:30;12.85;;;6.65;;
74383;SDS011;62824;52.994;-3.936;2022-12-18T10:35:57;11.70;;;5.85;;
74383;SDS011;62824;52.994;-3.936;2022-12-18T10:43:34;10.90;;;5.90;;
74383;SDS011;62824;52.994;-3.936;2022-12-18T10:48:31;10.50;;;5.80;;
74383;SDS011;62824;52.994;-3.936;2022-12-18T10:50:58;10.15;;;5.30;;
74383;SDS011;62824;52.994;-3.936;2022-12-18T10:53:28;11.88;;;6.15;;
74383;SDS011;62824;52.994;-3.936;2022-12-18T10:55:57;10.05;;;5.97;;
74383;SDS011;62824;52.994;-3.936;2022-12-18T10:58:33;8.15;;;4.68;;
74383;SDS011;62824;52.994;-3.936;2022-12-18T11:01:10;11.00;;;5.97;;
74383;SDS011;62824;52.994;-3.936;2022-12-18T11:06:15;10.75;;;4.43;;
74383;SDS011;62824;52.994;-3.936;2022-12-18T11:08:43;10.73;;;4.75;;
74383;SDS011;62824;52.994;-3.936;2022-12-18T11:11:22;9.18;;;4.53;;
74383;SDS011;62824;52.994;-3.936;2022-12-18T11:13:59;13.40;;;6.82;;
74383;SDS011;62824;52.994;-3.936;2022-12-18T11:16:29;11.32;;;6.07;;
74383;SDS011;62824;52.994;-3.936;2022-12-18T11:21:47;10.75;;;5.00;;
74383;SDS011;62824;52.994;-3.936;2022-12-18T11:24:17;8.70;;;4.75;;
74383;SDS011;62824;52.994;-3.936;2022-12-18T11:27:03;8.90;;;4.57;;
74383;SDS011;62824;52.994;-3.936;2022-12-18T11:29:35;9.82;;;4.68;;
74383;SDS011;62824;52.994;-3.936;2022-12-18T11:35:03;12.05;;;5.15;;
74383;SDS011;62824;52.994;-3.936;2022-12-18T11:37:53;6.80;;;4.22;;
74383;SDS011;62824;52.994;-3.936;2022-12-18T11:40:36;10.18;;;5.30;;
74383;SDS011;62824;52.994;-3.936;2022-12-18T11:43:10;9.38;;;4.57;;
74383;SDS011;62824;52.994;-3.936;2022-12-18T11:48:24;12.35;;;8.05;;
74383;SDS011;62824;52.994;-3.936;2022-12-18T11:50:56;9.18;;;4.70;;
74383;SDS011;62824;52.994;-3.936;2022-12-18T11:53:24;7.50;;;4.28;;
74383;SDS011;62824;52.994;-3.936;2022-12-18T11:58:52;5.80;;;3.83;;
74383;SDS011;62824;52.994;-3.936;2022-12-18T12:07:23;8.60;;;4.35;;
74383;SDS011;62824;52.994;-3.936;2022-12-18T12:39:52;5.43;;;3.40;;
74383;SDS011;62824;52.994;-3.936;2022-12-18T12:45:28;4.40;;;2.75;;
74383;SDS011;62824;52.994;-3.936;2022-12-18T12:48:01;4.57;;;2.42;;
74383;SDS011;62824;52.994;-3.936;2022-12-18T12:53:23;6.38;;;2.65;;
74383;SDS011;62824;52.994;-3.936;2022-12-18T12:55:54;3.35;;;2.05;;
74383;SDS011;62824;52.994;-3.936;2022-12-18T13:06:51;3.53;;;2.28;;
74383;SDS011;62824;52.994;-3.936;2022-12-18T13:09:03;4.47;;;2.10;;
74383;SDS011;62824;52.994;-3.936;2022-12-18T13:14:21;5.30;;;2.38;;
74383;SDS011;62824;52.994;-3.936;2022-12-18T13:16:49;4.38;;;2.30;;
74383;SDS011;62824;52.994;-3.936;2022-12-18T13:19:23;3.33;;;2.05;;
74383;SDS011;62824;52.994;-3.936;2022-12-18T13:21:52;2.38;;;1.70;;
74383;SDS011;62824;52.994;-3.936;2022-12-18T13:24:24;3.33;;;1.95;;
74383;SDS011;62824;52.994;-3.936;2022-12-18T13:26:52;2.88;;;1.73;;
74383;SDS011;62824;52.994;-3.936;2022-12-18T13:32:24;3.08;;;1.85;;
74383;SDS011;62824;52.994;-3.936;2022-12-18T13:37:42;2.45;;;1.23;;
74383;SDS011;62824;52.994;-3.936;2022-12-18T13:51:49;1.85;;;1.25;;
74383;SDS011;62824;52.994;-3.936;2022-12-18T13:56:50;1.52;;;1.15;;
74383;SDS011;62824;52.994;-3.936;2022-12-18T13:59:24;2.15;;;1.63;;
74383;SDS011;62824;52.994;-3.936;2022-12-18T14:01:55;3.33;;;2.00;;
74383;SDS011;62824;52.994;-3.936;2022-12-18T14:04:25;2.63;;;1.40;;
74383;SDS011;62824;52.994;-3.936;2022-12-18T14:06:54;3.28;;;2.35;;
74383;SDS011;62824;52.994;-3.936;2022-12-18T14:09:30;1.67;;;1.27;;
74383;SDS011;62824;52.994;-3.936;2022-12-18T14:11:59;1.67;;;1.02;;
74383;SDS011;62824;52.994;-3.936;2022-12-18T14:14:45;1.58;;;1.20;;
74383;SDS011;62824;52.994;-3.936;2022-12-18T14:17:14;1.80;;;1.40;;
74383;SDS011;62824;52.994;-3.936;2022-12-18T14:19:41;2.03;;;1.30;;
74383;SDS011;62824;52.994;-3.936;2022-12-18T14:22:13;2.88;;;1.73;;
74383;SDS011;62824;52.994;-3.936;2022-12-18T14:25:12;3.00;;;1.35;;
74383;SDS011;62824;52.994;-3.936;2022-12-18T14:37:31;1.60;;;0.93;;
74383;SDS011;62824;52.994;-3.936;2022-12-18T14:39:58;1.55;;;0.80;;
74383;SDS011;62824;52.994;-3.936;2022-12-18T14:42:28;1.45;;;0.90;;
74383;SDS011;62824;52.994;-3.936;2022-12-18T14:48:00;1.23;;;1.00;;
74383;SDS011;62824;52.994;-3.936;2022-12-18T14:50:32;1.15;;;0.73;;
74383;SDS011;62824;52.994;-3.936;2022-12-18T14:52:58;1.13;;;0.70;;
74383;SDS011;62824;52.994;-3.936;2022-12-18T14:55:23;2.08;;;0.82;;
74383;SDS011;62824;52.994;-3.936;2022-12-18T14:57:50;1.08;;;0.70;;
74383;SDS011;62824;52.994;-3.936;2022-12-18T15:00:20;1.98;;;1.30;;
74383;SDS011;62824;52.994;-3.936;2022-12-18T15:02:52;1.80;;;1.00;;
74383;SDS011;62824;52.994;-3.936;2022-12-18T15:05:20;2.08;;;1.15;;
74383;SDS011;62824;52.994;-3.936;2022-12-18T15:07:53;0.70;;;0.70;;
74383;SDS011;62824;52.994;-3.936;2022-12-18T15:10:25;1.23;;;0.73;;
74383;SDS011;62824;52.994;-3.936;2022-12-18T15:20:51;3.15;;;1.63;;
74383;SDS011;62824;52.994;-3.936;2022-12-18T15:23:21;4.20;;;1.85;;
74383;SDS011;62824;52.994;-3.936;2022-12-18T15:28:47;1.88;;;1.08;;
74383;SDS011;62824;52.994;-3.936;2022-12-18T15:33:40;2.75;;;1.42;;
74383;SDS011;62824;52.994;-3.936;2022-12-18T15:36:13;4.03;;;2.20;;
74383;SDS011;62824;52.994;-3.936;2022-12-18T15:38:40;4.85;;;2.20;;
74383;SDS011;62824;52.994;-3.936;2022-12-18T15:41:11;3.20;;;1.10;;
74383;SDS011;62824;52.994;-3.936;2022-12-18T15:43:38;1.73;;;1.13;;
74383;SDS011;62824;52.994;-3.936;2022-12-18T15:46:14;1.70;;;1.20;;
74383;SDS011;62824;52.994;-3.936;2022-12-18T15:48:47;1.80;;;1.27;;
74383;SDS011;62824;52.994;-3.936;2022-12-18T15:51:18;1.00;;;0.70;;
74383;SDS011;62824;52.994;-3.936;2022-12-18T15:53:50;1.63;;;0.82;;
74383;SDS011;62824;52.994;-3.936;2022-12-18T15:56:18;1.20;;;0.88;;
74383;SDS011;62824;52.994;-3.936;2022-12-18T15:59:10;2.10;;;1.17;;
74383;SDS011;62824;52.994;-3.936;2022-12-18T16:01:38;2.83;;;1.42;;
74383;SDS011;62824;52.994;-3.936;2022-12-18T16:04:05;1.60;;;1.13;;
74383;SDS011;62824;52.994;-3.936;2022-12-18T16:06:31;2.65;;;1.48;;
74383;SDS011;62824;52.994;-3.936;2022-12-18T16:08:57;1.10;;;1.00;;
74383;SDS011;62824;52.994;-3.936;2022-12-18T16:11:24;2.35;;;1.63;;
74383;SDS011;62824;52.994;-3.936;2022-12-18T16:14:06;2.28;;;1.35;;
74383;SDS011;62824;52.994;-3.936;2022-12-18T16:16:40;2.45;;;1.40;;
74383;SDS011;62824;52.994;-3.936;2022-12-18T16:19:06;2.58;;;1.20;;
74383;SDS011;62824;52.994;-3.936;2022-12-18T16:21:32;3.40;;;1.60;;
74383;SDS011;62824;52.994;-3.936;2022-12-18T16:23:58;1.75;;;1.20;;
74383;SDS011;62824;52.994;-3.936;2022-12-18T16:26:24;1.05;;;0.93;;
74383;SDS011;62824;52.994;-3.936;2022-12-18T16:28:50;1.27;;;0.73;;
74383;SDS011;62824;52.994;-3.936;2022-12-18T16:31:15;0.80;;;0.77;;
74383;SDS011;62824;52.994;-3.936;2022-12-18T16:33:41;2.20;;;0.93;;
74383;SDS011;62824;52.994;-3.936;2022-12-18T16:36:07;1.20;;;1.10;;
74383;SDS011;62824;52.994;-3.936;2022-12-18T16:38:33;0.60;;;0.60;;
74383;SDS011;62824;52.994;-3.936;2022-12-18T16:40:59;5.82;;;2.63;;
74383;SDS011;62824;52.994;-3.936;2022-12-18T16:43:43;3.13;;;1.48;;
74383;SDS011;62824;52.994;-3.936;2022-12-18T16:46:31;2.40;;;1.20;;
74383;SDS011;62824;52.994;-3.936;2022-12-18T16:49:10;2.92;;;1.42;;
74383;SDS011;62824;52.994;-3.936;2022-12-18T16:51:37;2.35;;;1.25;;
74383;SDS011;62824;52.994;-3.936;2022-12-18T16:54:03;4.22;;;1.77;;
74383;SDS011;62824;52.994;-3.936;2022-12-18T16:56:30;2.30;;;1.25;;
74383;SDS011;62824;52.994;-3.936;2022-12-18T16:58:57;3.47;;;1.85;;
74383;SDS011;62824;52.994;-3.936;2022-12-18T17:01:24;5.63;;;2.95;;
74383;SDS011;62824;52.994;-3.936;2022-12-18T17:03:51;2.30;;;1.20;;
74383;SDS011;62824;52.994;-3.936;2022-12-18T17:06:22;2.33;;;1.50;;
74383;SDS011;62824;52.994;-3.936;2022-12-18T17:08:53;2.13;;;1.30;;
74383;SDS011;62824;52.994;-3.936;2022-12-18T17:11:21;3.35;;;1.88;;
74383;SDS011;62824;52.994;-3.936;2022-12-18T17:13:48;3.95;;;1.80;;
74383;SDS011;62824;52.994;-3.936;2022-12-18T17:16:14;2.25;;;1.20;;
74383;SDS011;62824;52.994;-3.936;2022-12-18T17:18:41;2.15;;;1.30;;
74383;SDS011;62824;52.994;-3.936;2022-12-18T17:21:08;3.58;;;1.40;;
74383;SDS011;62824;52.994;-3.936;2022-12-18T17:23:35;2.15;;;1.50;;
74383;SDS011;62824;52.994;-3.936;2022-12-18T17:26:12;1.50;;;1.38;;
74383;SDS011;62824;52.994;-3.936;2022-12-18T17:28:38;3.10;;;1.40;;
74383;SDS011;62824;52.994;-3.936;2022-12-18T17:31:12;2.40;;;1.60;;
74383;SDS011;62824;52.994;-3.936;2022-12-18T17:33:57;1.85;;;1.30;;
74383;SDS011;62824;52.994;-3.936;2022-12-18T17:36:27;4.10;;;2.60;;
74383;SDS011;62824;52.994;-3.936;2022-12-18T17:38:55;4.38;;;3.17;;
74383;SDS011;62824;52.994;-3.936;2022-12-18T17:41:23;5.57;;;3.35;;